Plum Branch, SC

12:31 PM EDT on March 28, 2015 (GMT -0400)
Plum Branch South Carolina | | Change Station
CLOSE
Current Station
Personal Weather Station
Location: Plum Branch, SC
Elevation: 354 ft
Nearby Weather Stations
Active Advisory: Freeze Warning

Elev 354 ft 33.81 °N, 82.31 °W | Updated 8 seconds ago

Clear
Clear
47.7 °F
Feels Like 45 °F
N
6.3
Wind Variable Wind from SE
Gusts 7.4 mph

Today
High -- | Low -- °F
--% Chance of Precip.
Yesterday
High -- | Low -- °F
Precip. -- in
7:22 AM 7:46 PM
Waxing Gibbous, 63% visible
Pressure 30.16 in
Visibility 10.0 miles
Clouds Clear
Windchill 45 °F
Dew Point 1 °F
Humidity 14%
Rainfall 0.00 in
Snow Depth Not available.
UV 8 out of 12
Pollen 9.90 out of 12
Air Quality Not available.
Flu Activity Not available.
METAR KHQU 281615Z AUTO 29003KT 10SM CLR 10/M02 A3016 RMK AO1 T00981025

More Conditions Fewer Conditions

Pressure 30.16 in
Visibility 10.0 miles
Clouds Clear
Windchill 45 °F
Dew Point 1 °F
Humidity 14%
Rainfall 0.00 in
Snow Depth Not available.
UV 8 out of 12
Pollen 9.90 out of 12
Air Quality Not available.
Flu Activity Not available.
METAR KHQU 281615Z AUTO 29003KT 10SM CLR 10/M02 A3016 RMK AO1 T00981025

More Conditions Fewer Conditions

10-Day Weather Forecast

Almanac

Astronomy

Mar. 28, 2015 Rise Set
Actual Time
Civil Twilight
Nautical Twilight
Astronomical Twilight
Moon
Length of Visible Light
Length of Day
Tomorrow will be .
, % of the Moon is Illuminated

Today's Extremes

State Highs State Lows

Community

WunderPhotos

Upload Photos

1,809,027 photos uploaded!

WunderBlogs® & News

Nearby

Air Quality

  Air Quality AQ Index Pollutant
Not available.

Snow Depth

Station Depth Elevation

Earthquake Activity

City Distance Mag. Time & Date
Minimum magnitude displayed is 2.5.

Coastal Water Temperatures

Place Temperature

Stations

Nearby Weather Stations

Station Location Temp. Windchill Dew Point Humidity Wind Precip. Elev Updated Type
                   
Freeze Warning
Statement as of 10:58 AM EDT on March 28, 2015

... Freeze warning remains in effect from 2 am to 10 am EDT
Sunday...

* temperature... the temperatures across the region are expected to
fall to at or below freezing for a few hours early Sunday
morning. Morning lows Sunday morning will range from the middle
to upper 20s in the northern midlands and Pee Dee... to around 30
across the rest of the midlands and central Savannah River area.

* Impacts... freezing conditions may kill crops and other
sensitive vegetation that have begun growing and blooming
early this Spring. Persons with agricultural interests should
prepare for a period of freezing temperatures and take the
necessary precautions.

Precautionary/preparedness actions...

A freeze warning means sub-freezing temperatures are imminent or
highly likely. These conditions will kill crops and other
sensitive vegetation.